createdAt,value
2023-01-20T00:01:30.457Z,103.97
2023-01-20T00:03:58.345Z,108.27
2023-01-20T00:06:28.102Z,108.07
2023-01-20T00:08:57.241Z,106.60
2023-01-20T00:11:25.133Z,103.17
2023-01-20T00:14:00.398Z,102.13
2023-01-20T00:16:28.279Z,99.03
2023-01-20T00:18:55.537Z,99.03
2023-01-20T00:21:23.439Z,103.23
2023-01-20T00:23:50.841Z,106.90
2023-01-20T00:26:20.930Z,99.37
2023-01-20T00:28:48.692Z,98.87
2023-01-20T00:31:16.820Z,94.67
2023-01-20T00:33:44.877Z,102.00
2023-01-20T00:36:13.370Z,91.73
2023-01-20T00:38:40.670Z,99.70
2023-01-20T00:41:08.199Z,102.10
2023-01-20T00:43:36.259Z,102.57
2023-01-20T00:46:04.649Z,96.77
2023-01-20T00:48:32.082Z,105.87
2023-01-20T00:50:59.145Z,105.87
2023-01-20T00:53:26.172Z,103.80
2023-01-20T00:55:53.206Z,109.93
2023-01-20T00:58:20.488Z,106.13
2023-01-20T01:00:48.816Z,114.20
2023-01-20T01:03:16.103Z,123.03
2023-01-20T01:05:44.740Z,122.60
2023-01-20T01:08:12.009Z,126.43
2023-01-20T01:10:40.421Z,120.87
2023-01-20T01:13:08.154Z,123.70
2023-01-20T01:15:35.537Z,122.20
2023-01-20T01:18:02.904Z,117.57
2023-01-20T01:20:30.240Z,126.43
2023-01-20T01:22:57.432Z,117.00
2023-01-20T01:25:24.700Z,115.20
2023-01-20T01:27:51.672Z,122.93
2023-01-20T01:30:18.943Z,125.57
2023-01-20T01:32:47.054Z,127.50
2023-01-20T01:35:14.351Z,123.60
2023-01-20T01:37:41.545Z,134.27
2023-01-20T01:40:09.314Z,124.47
2023-01-20T01:42:36.828Z,120.70
2023-01-20T01:45:13.687Z,120.70
2023-01-20T01:47:44.187Z,125.77
2023-01-20T01:50:17.898Z,136.10
2023-01-20T01:52:47.994Z,129.40
2023-01-20T01:55:17.551Z,119.17
2023-01-20T01:57:45.140Z,121.63
2023-01-20T02:00:12.665Z,131.40
2023-01-20T02:02:44.080Z,130.07
2023-01-20T02:05:13.892Z,122.93
2023-01-20T02:07:44.408Z,131.70
2023-01-20T02:10:12.047Z,125.43
2023-01-20T02:12:39.982Z,133.20
2023-01-20T02:15:07.764Z,134.67
2023-01-20T02:18:11.595Z,122.53
2023-01-20T02:21:09.385Z,132.33
2023-01-20T02:23:50.146Z,125.13
2023-01-20T02:26:17.183Z,123.13
2023-01-20T02:29:05.647Z,129.20
2023-01-20T02:32:11.022Z,123.43
2023-01-20T02:34:47.279Z,123.60
2023-01-20T02:37:18.736Z,123.97
2023-01-20T02:40:10.472Z,123.00
2023-01-20T02:42:42.574Z,119.77
2023-01-20T02:45:20.264Z,121.53
2023-01-20T02:47:58.809Z,118.50
2023-01-20T02:50:34.831Z,119.33
2023-01-20T02:53:04.495Z,127.33
2023-01-20T02:55:43.763Z,121.60
2023-01-20T02:58:19.924Z,117.87
2023-01-20T03:01:03.810Z,129.43
2023-01-20T03:03:35.670Z,126.90
2023-01-20T03:06:07.219Z,117.63
2023-01-20T03:08:35.227Z,123.20
2023-01-20T03:11:06.032Z,116.10
2023-01-20T03:13:50.323Z,123.73
2023-01-20T03:16:23.748Z,111.40
2023-01-20T03:18:52.159Z,116.03
2023-01-20T03:21:19.636Z,118.43
2023-01-20T03:23:50.538Z,117.03
2023-01-20T03:26:19.635Z,116.47
2023-01-20T03:28:48.971Z,106.60
2023-01-20T03:31:19.072Z,115.50
2023-01-20T03:33:47.970Z,115.33
2023-01-20T03:36:16.380Z,117.07
2023-01-20T03:38:44.952Z,107.73
2023-01-20T03:41:25.816Z,113.00
2023-01-20T03:43:58.158Z,112.87
2023-01-20T03:46:42.145Z,116.37
2023-01-20T03:49:50.951Z,118.40
2023-01-20T03:52:47.617Z,117.20
2023-01-20T03:55:23.113Z,116.57
2023-01-20T03:57:57.452Z,116.83
2023-01-20T04:00:29.749Z,122.30
2023-01-20T04:03:00.285Z,122.00
2023-01-20T04:05:28.612Z,125.10
2023-01-20T04:08:02.691Z,129.13
2023-01-20T04:10:31.527Z,115.67
2023-01-20T04:12:58.707Z,121.93
2023-01-20T04:15:29.052Z,114.80
2023-01-20T04:17:57.315Z,122.77
2023-01-20T04:20:24.652Z,117.20
2023-01-20T04:22:57.428Z,127.43
2023-01-20T04:25:30.142Z,124.50
2023-01-20T04:27:57.351Z,124.00
2023-01-20T04:30:24.640Z,123.43
2023-01-20T04:32:51.881Z,122.17
2023-01-20T04:35:20.658Z,127.63
2023-01-20T04:37:47.827Z,123.93
2023-01-20T04:40:15.071Z,131.50
2023-01-20T04:42:42.277Z,131.37
2023-01-20T04:45:14.624Z,128.57
2023-01-20T04:47:42.273Z,125.00
2023-01-20T04:50:11.035Z,127.80
2023-01-20T04:52:38.344Z,133.13
2023-01-20T04:55:05.891Z,128.43
2023-01-20T04:57:32.991Z,124.33
2023-01-20T05:00:00.060Z,122.50
2023-01-20T05:02:27.230Z,122.57
2023-01-20T05:04:54.442Z,122.40
2023-01-20T05:07:22.939Z,123.77
2023-01-20T05:09:49.907Z,118.30
2023-01-20T05:12:16.984Z,123.67
2023-01-20T05:14:43.979Z,106.27
2023-01-20T05:17:11.051Z,109.47
2023-01-20T05:19:38.119Z,91.37
2023-01-20T05:22:05.315Z,88.43
2023-01-20T05:24:32.584Z,95.63
2023-01-20T05:27:02.820Z,96.83
2023-01-20T05:29:30.256Z,89.63
2023-01-20T05:31:57.456Z,104.00
2023-01-20T05:34:24.495Z,95.20
2023-01-20T05:36:53.490Z,95.33
2023-01-20T05:39:21.167Z,90.77
2023-01-20T05:41:48.602Z,89.20
2023-01-20T05:44:16.287Z,97.33
2023-01-20T05:46:43.444Z,95.17
2023-01-20T05:49:12.406Z,101.97
2023-01-20T05:51:39.660Z,102.13
2023-01-20T05:54:06.672Z,102.80
2023-01-20T05:56:33.848Z,96.90
2023-01-20T05:59:00.869Z,89.57
2023-01-20T06:01:28.366Z,87.60
2023-01-20T06:03:55.405Z,84.70
2023-01-20T06:06:22.479Z,80.97
2023-01-20T06:08:52.804Z,87.20
2023-01-20T06:11:20.810Z,84.97
2023-01-20T06:13:49.128Z,80.20
2023-01-20T06:16:20.090Z,71.33
2023-01-20T06:18:47.109Z,69.93
2023-01-20T06:21:14.095Z,64.43
2023-01-20T06:23:41.801Z,63.10
2023-01-20T06:26:14.101Z,66.60
2023-01-20T06:28:41.330Z,64.17
2023-01-20T06:31:11.331Z,66.47
2023-01-20T06:33:38.497Z,68.80
2023-01-20T06:36:06.497Z,71.17
2023-01-20T06:38:35.297Z,70.23
2023-01-20T06:41:08.994Z,77.17
2023-01-20T06:43:40.053Z,69.80
2023-01-20T06:46:10.209Z,68.10
2023-01-20T06:48:37.845Z,72.83
2023-01-20T06:51:18.642Z,72.40
2023-01-20T06:53:46.394Z,78.07
2023-01-20T06:56:15.037Z,73.90
2023-01-20T06:58:42.863Z,77.27
2023-01-20T07:01:15.262Z,77.13
2023-01-20T07:03:46.099Z,79.70
2023-01-20T07:06:35.370Z,86.47
2023-01-20T07:09:02.944Z,85.33
2023-01-20T07:11:31.706Z,88.07
2023-01-20T07:13:59.120Z,91.13
2023-01-20T07:16:30.728Z,88.20
2023-01-20T07:18:58.378Z,97.90
2023-01-20T07:21:26.662Z,93.20
2023-01-20T07:23:54.367Z,97.43
2023-01-20T07:26:23.582Z,92.13
2023-01-20T07:28:52.051Z,94.93
2023-01-20T07:31:24.160Z,88.87
2023-01-20T07:33:51.741Z,101.43
2023-01-20T07:36:19.178Z,95.50
2023-01-20T07:38:50.872Z,92.87
2023-01-20T07:41:19.984Z,97.30
2023-01-20T07:43:49.329Z,96.10
2023-01-20T07:46:16.922Z,109.63
2023-01-20T07:48:44.184Z,100.73
2023-01-20T07:51:13.117Z,97.30
2023-01-20T07:53:48.473Z,99.00
2023-01-20T07:56:35.860Z,95.63
2023-01-20T07:59:02.931Z,101.73
2023-01-20T08:01:31.925Z,96.37
2023-01-20T08:04:03.152Z,99.40
2023-01-20T08:06:30.923Z,95.50
2023-01-20T08:09:01.712Z,97.90
2023-01-20T08:11:29.533Z,94.50
2023-01-20T08:13:57.592Z,99.17
2023-01-20T08:16:24.597Z,90.23
2023-01-20T08:18:54.100Z,92.10
2023-01-20T08:21:22.566Z,93.67
2023-01-20T08:23:50.303Z,82.30
2023-01-20T08:26:17.797Z,77.17
2023-01-20T08:28:45.043Z,84.80
2023-01-20T08:31:14.987Z,92.33
2023-01-20T08:33:43.430Z,106.10
2023-01-20T08:36:17.554Z,106.20
2023-01-20T08:38:45.572Z,92.33
2023-01-20T08:41:16.312Z,91.83
2023-01-20T08:43:43.499Z,95.67
2023-01-20T08:46:12.989Z,96.57
2023-01-20T08:48:42.111Z,91.80
2023-01-20T08:51:14.949Z,88.33
2023-01-20T08:53:42.824Z,87.83
2023-01-20T08:56:11.242Z,84.63
2023-01-20T08:58:38.858Z,87.83
2023-01-20T09:01:21.594Z,92.87
2023-01-20T09:04:03.489Z,89.20
2023-01-20T09:06:39.182Z,89.60
2023-01-20T09:09:06.337Z,94.27
2023-01-20T09:11:33.460Z,101.33
2023-01-20T09:14:00.468Z,100.77
2023-01-20T09:16:28.336Z,93.37
2023-01-20T09:18:55.480Z,97.73
2023-01-20T09:21:23.914Z,101.07
2023-01-20T09:23:51.318Z,100.77
2023-01-20T09:26:34.387Z,101.20
2023-01-20T09:29:09.962Z,102.33
2023-01-20T09:31:46.396Z,98.53
2023-01-20T09:34:19.645Z,103.33
2023-01-20T09:36:51.290Z,108.13
2023-01-20T09:39:38.017Z,101.17
2023-01-20T09:42:41.058Z,94.77
2023-01-20T09:45:22.970Z,94.97
2023-01-20T09:47:50.613Z,105.23
2023-01-20T09:50:48.335Z,100.77
2023-01-20T09:53:31.003Z,99.60
2023-01-20T09:56:12.431Z,97.27
2023-01-20T09:59:06.119Z,93.73
2023-01-20T10:01:39.123Z,94.33
2023-01-20T10:04:21.188Z,100.07
2023-01-20T10:07:09.177Z,99.77
2023-01-20T10:10:01.328Z,105.33
2023-01-20T10:12:33.665Z,105.60
2023-01-20T10:15:09.385Z,110.70
2023-01-20T10:17:44.164Z,109.97
2023-01-20T10:20:37.511Z,99.53
2023-01-20T10:23:13.975Z,107.70
2023-01-20T10:26:19.019Z,110.70
2023-01-20T10:29:13.574Z,105.17
2023-01-20T10:31:51.539Z,108.00
2023-01-20T10:34:20.857Z,107.33
2023-01-20T10:37:01.001Z,112.20
2023-01-20T10:39:35.349Z,108.83
2023-01-20T10:42:12.927Z,117.63
2023-01-20T10:44:41.958Z,109.60
2023-01-20T10:47:37.326Z,113.97
2023-01-20T10:50:31.656Z,114.83
2023-01-20T10:53:01.457Z,112.80
2023-01-20T10:55:50.210Z,113.67
2023-01-20T10:58:32.538Z,110.23
2023-01-20T11:01:05.559Z,118.97
2023-01-20T11:03:37.371Z,120.43
2023-01-20T11:06:06.540Z,115.37
2023-01-20T11:08:33.988Z,119.53
2023-01-20T11:11:15.298Z,128.70
2023-01-20T11:13:42.638Z,127.70
2023-01-20T11:16:31.717Z,122.73
2023-01-20T11:19:04.911Z,125.63
2023-01-20T11:21:36.911Z,124.70
2023-01-20T11:24:32.508Z,104.33
2023-01-20T11:27:11.424Z,103.53
2023-01-20T11:29:45.118Z,97.27
2023-01-20T11:33:07.188Z,101.10
2023-01-20T11:35:34.303Z,98.77
2023-01-20T11:38:25.241Z,106.23
2023-01-20T11:40:57.484Z,100.77
2023-01-20T11:43:38.247Z,106.90
2023-01-20T11:46:25.388Z,108.60
2023-01-20T11:49:24.893Z,94.87
2023-01-20T11:51:55.121Z,92.87
2023-01-20T11:54:27.836Z,104.63
2023-01-20T11:57:00.761Z,104.90
2023-01-20T11:59:29.399Z,95.20
2023-01-20T12:02:16.524Z,104.30
2023-01-20T12:05:18.269Z,104.90
2023-01-20T12:07:47.572Z,98.60
2023-01-20T12:10:34.461Z,104.50
2023-01-20T12:13:22.590Z,104.03
2023-01-20T12:16:01.427Z,108.93
2023-01-20T12:18:35.027Z,97.33
2023-01-20T12:21:08.100Z,108.70
2023-01-20T12:24:17.569Z,107.97
2023-01-20T12:26:45.005Z,99.43
2023-01-20T12:29:23.034Z,101.23
2023-01-20T12:31:51.000Z,100.53
2023-01-20T12:34:30.962Z,101.37
2023-01-20T12:37:01.059Z,96.10
2023-01-20T12:39:46.041Z,100.67
2023-01-20T12:42:39.713Z,97.23
2023-01-20T12:45:34.780Z,106.13
2023-01-20T12:48:32.299Z,104.83
2023-01-20T12:51:23.884Z,98.23
2023-01-20T12:54:14.665Z,101.27
2023-01-20T12:56:56.785Z,98.73
2023-01-20T12:59:32.648Z,96.73
2023-01-20T13:02:27.050Z,104.93
2023-01-20T13:05:16.970Z,107.90
2023-01-20T13:07:57.510Z,110.30
2023-01-20T13:10:55.759Z,115.23
2023-01-20T13:13:56.890Z,124.27
2023-01-20T13:16:32.308Z,120.73
2023-01-20T13:19:24.416Z,118.93
2023-01-20T13:22:07.009Z,128.73
2023-01-20T13:24:35.732Z,121.53
2023-01-20T13:27:03.395Z,117.83
2023-01-20T13:29:36.563Z,123.90
2023-01-20T13:32:14.651Z,112.37
2023-01-20T13:34:41.771Z,116.47
2023-01-20T13:37:30.759Z,111.40
2023-01-20T13:40:00.524Z,135.47
2023-01-20T13:42:38.403Z,132.80
2023-01-20T13:45:15.104Z,131.97
2023-01-20T13:47:59.684Z,129.23
2023-01-20T13:50:33.633Z,122.40
2023-01-20T13:53:00.705Z,125.40
2023-01-20T13:55:48.446Z,143.73
2023-01-20T13:58:33.546Z,133.83
2023-01-20T14:01:05.921Z,118.53
2023-01-20T14:03:36.332Z,130.47
2023-01-20T14:06:06.149Z,112.17
2023-01-20T14:08:46.465Z,121.73
2023-01-20T14:11:24.961Z,108.30
2023-01-20T14:14:07.758Z,111.27
2023-01-20T14:16:35.183Z,104.17
2023-01-20T14:19:18.608Z,113.33
2023-01-20T14:21:50.843Z,113.73
2023-01-20T14:24:28.719Z,108.07
2023-01-20T14:27:23.061Z,111.47
2023-01-20T14:29:52.238Z,111.63
2023-01-20T14:32:37.114Z,112.60
2023-01-20T14:35:39.031Z,101.77
2023-01-20T14:38:06.278Z,104.90
2023-01-20T14:40:35.933Z,104.27
2023-01-20T14:43:18.439Z,100.10
2023-01-20T14:45:52.833Z,99.37
2023-01-20T14:48:34.027Z,117.60
2023-01-20T14:51:04.302Z,108.33
2023-01-20T14:53:31.672Z,108.13
2023-01-20T14:56:02.531Z,98.40
2023-01-20T14:58:30.700Z,92.47
2023-01-20T15:01:06.539Z,93.73
2023-01-20T15:03:34.260Z,99.60
2023-01-20T15:06:22.037Z,97.07
2023-01-20T15:09:05.600Z,94.60
2023-01-20T15:11:34.376Z,99.17
2023-01-20T15:14:01.380Z,105.03
2023-01-20T15:16:30.735Z,103.93
2023-01-20T15:19:31.429Z,107.83
2023-01-20T15:22:18.046Z,116.93
2023-01-20T15:24:49.707Z,101.73
2023-01-20T15:27:28.246Z,101.73
2023-01-20T15:29:59.718Z,94.17
2023-01-20T15:32:26.978Z,101.03
2023-01-20T15:34:54.392Z,107.20
2023-01-20T15:37:21.526Z,103.37
2023-01-20T15:39:48.775Z,92.13
2023-01-20T15:42:16.066Z,94.77
2023-01-20T15:44:43.093Z,102.60
2023-01-20T15:47:43.260Z,98.10
2023-01-20T15:50:16.883Z,99.27
2023-01-20T15:52:45.336Z,82.07
2023-01-20T15:55:14.656Z,77.70
2023-01-20T15:57:42.332Z,89.63
2023-01-20T16:00:23.115Z,92.40
2023-01-20T16:02:51.124Z,92.63
2023-01-20T16:05:18.420Z,94.70
2023-01-20T16:07:47.845Z,92.00
2023-01-20T16:10:17.250Z,103.17
2023-01-20T16:12:45.799Z,101.40
2023-01-20T16:15:18.158Z,98.33
2023-01-20T16:17:46.145Z,91.50
2023-01-20T16:20:24.777Z,80.50
2023-01-20T16:22:52.551Z,83.07
2023-01-20T16:25:22.222Z,81.90
2023-01-20T16:27:49.869Z,88.53
2023-01-20T16:30:19.431Z,73.60
2023-01-20T16:32:46.983Z,70.80
2023-01-20T16:35:16.212Z,67.23
2023-01-20T16:37:45.937Z,70.30
2023-01-20T16:40:18.900Z,72.67
2023-01-20T16:42:48.652Z,72.43
2023-01-20T16:45:36.352Z,74.03
2023-01-20T16:48:03.783Z,67.43
2023-01-20T16:50:31.311Z,63.70
2023-01-20T16:52:58.386Z,74.53
2023-01-20T16:55:25.594Z,71.77
2023-01-20T16:57:52.729Z,68.73
2023-01-20T17:00:21.034Z,66.60
2023-01-20T17:02:54.662Z,74.37
2023-01-20T17:05:22.926Z,68.27
2023-01-20T17:07:50.396Z,69.67
2023-01-20T17:10:21.447Z,71.60
2023-01-20T17:12:49.120Z,69.83
2023-01-20T17:15:16.321Z,59.90
2023-01-20T17:17:43.488Z,64.60
2023-01-20T17:20:10.804Z,70.60
2023-01-20T17:22:39.812Z,72.00
2023-01-20T17:25:09.161Z,71.87
2023-01-20T17:27:37.593Z,79.77
2023-01-20T17:30:07.725Z,75.83
2023-01-20T17:32:35.545Z,70.93
2023-01-20T17:35:03.283Z,75.20
2023-01-20T17:37:30.762Z,89.17
2023-01-20T17:39:59.794Z,84.97
2023-01-20T17:42:27.073Z,77.87
2023-01-20T17:44:54.097Z,82.97
2023-01-20T17:47:21.170Z,82.30
2023-01-20T17:49:48.342Z,88.00
2023-01-20T17:52:15.478Z,103.57
2023-01-20T17:54:42.543Z,88.63
2023-01-20T17:57:09.675Z,82.97
2023-01-20T17:59:36.930Z,85.37
2023-01-20T18:02:05.685Z,83.23
2023-01-20T18:04:32.809Z,77.13
2023-01-20T18:06:59.864Z,79.33
2023-01-20T18:09:26.901Z,86.43
2023-01-20T18:11:54.501Z,91.50
2023-01-20T18:14:21.669Z,81.67
2023-01-20T18:16:50.331Z,76.03
2023-01-20T18:19:20.400Z,81.07
2023-01-20T18:21:47.572Z,80.00
2023-01-20T18:24:14.831Z,75.37
2023-01-20T18:26:45.254Z,75.63
2023-01-20T18:29:16.952Z,78.37
2023-01-20T18:31:46.995Z,78.03
2023-01-20T18:34:15.896Z,78.57
2023-01-20T18:36:46.163Z,72.47
2023-01-20T18:39:16.064Z,71.77
2023-01-20T18:41:43.830Z,75.50
2023-01-20T18:44:11.437Z,71.90
2023-01-20T18:46:38.637Z,64.77
2023-01-20T18:49:09.568Z,66.30
2023-01-20T18:51:37.348Z,66.03
2023-01-20T18:54:07.727Z,57.07
2023-01-20T18:56:34.861Z,62.10
2023-01-20T18:59:03.214Z,58.27
2023-01-20T19:01:33.893Z,55.37
2023-01-20T19:04:03.405Z,58.10
2023-01-20T19:06:34.419Z,51.40
2023-01-20T19:09:01.793Z,46.17
2023-01-20T19:11:32.458Z,56.10
2023-01-20T19:13:59.929Z,47.47
2023-01-20T19:16:32.596Z,50.37
2023-01-20T19:19:03.709Z,45.07
2023-01-20T19:21:32.584Z,50.17
2023-01-20T19:24:06.232Z,46.63
2023-01-20T19:26:35.999Z,51.40
2023-01-20T19:29:06.169Z,49.43
2023-01-20T19:31:36.070Z,47.70
2023-01-20T19:34:03.684Z,60.93
2023-01-20T19:36:31.220Z,62.37
2023-01-20T19:38:58.779Z,56.00
2023-01-20T19:41:28.444Z,50.60
2023-01-20T19:43:57.465Z,44.33
2023-01-20T19:46:30.322Z,44.73
2023-01-20T19:48:59.035Z,42.97
2023-01-20T19:51:26.852Z,43.07
2023-01-20T19:53:58.092Z,43.23
2023-01-20T19:56:27.887Z,42.37
2023-01-20T19:58:55.699Z,41.20
2023-01-20T20:01:31.394Z,39.10
2023-01-20T20:04:00.135Z,42.60
2023-01-20T20:06:31.350Z,42.10
2023-01-20T20:09:00.891Z,42.60
2023-01-20T20:11:29.580Z,39.57
2023-01-20T20:13:58.740Z,41.90
2023-01-20T20:16:27.944Z,45.03
2023-01-20T20:18:56.214Z,41.13
2023-01-20T20:21:23.887Z,43.37
2023-01-20T20:23:56.422Z,39.80
2023-01-20T20:26:26.012Z,45.33
2023-01-20T20:28:53.213Z,43.03
2023-01-20T20:31:22.338Z,44.80
2023-01-20T20:33:49.656Z,47.03
2023-01-20T20:36:16.703Z,47.00
2023-01-20T20:38:51.252Z,48.97
2023-01-20T20:41:19.264Z,45.17
2023-01-20T20:43:46.622Z,44.00
2023-01-20T20:46:15.664Z,45.60
2023-01-20T20:48:42.720Z,50.77
2023-01-20T20:51:15.472Z,49.10
2023-01-20T20:53:43.863Z,44.43
2023-01-20T20:56:15.665Z,45.63
2023-01-20T20:58:59.762Z,46.93
2023-01-20T21:01:30.262Z,44.60
2023-01-20T21:03:58.230Z,40.87
2023-01-20T21:06:26.010Z,50.40
2023-01-20T21:08:53.663Z,42.93
2023-01-20T21:11:20.792Z,43.33
2023-01-20T21:13:49.676Z,42.00
2023-01-20T21:16:20.889Z,41.40
2023-01-20T21:18:48.401Z,38.90
2023-01-20T21:21:19.838Z,37.70
2023-01-20T21:23:58.096Z,31.77
2023-01-20T21:26:29.787Z,33.63
2023-01-20T21:29:00.284Z,36.10
2023-01-20T21:31:27.863Z,34.73
2023-01-20T21:34:00.477Z,36.07
2023-01-20T21:36:29.813Z,31.67
2023-01-20T21:38:58.216Z,32.43
2023-01-20T21:41:25.307Z,33.23
2023-01-20T21:44:11.105Z,35.53
2023-01-20T21:46:40.589Z,34.90
2023-01-20T21:49:29.290Z,31.37
2023-01-20T21:52:15.761Z,29.03
2023-01-20T21:54:45.421Z,28.23
2023-01-20T21:57:13.000Z,28.57
2023-01-20T21:59:39.944Z,25.93
2023-01-20T22:02:08.161Z,30.03
2023-01-20T22:04:35.266Z,28.20
2023-01-20T22:07:02.697Z,29.97
2023-01-20T22:09:30.044Z,31.23
2023-01-20T22:11:57.211Z,30.90
2023-01-20T22:14:24.312Z,30.90
2023-01-20T22:16:51.920Z,28.97
2023-01-20T22:19:20.909Z,31.20
2023-01-20T22:21:47.915Z,29.33
2023-01-20T22:24:15.382Z,30.20
2023-01-20T22:26:43.698Z,28.73
2023-01-20T22:29:11.288Z,33.57
2023-01-20T22:31:39.813Z,139.40
2023-01-20T22:34:07.796Z,41.20
2023-01-20T22:36:35.860Z,28.47
2023-01-20T22:39:04.690Z,32.43
2023-01-20T22:41:32.452Z,31.30
2023-01-20T22:43:59.957Z,30.87
2023-01-20T22:46:29.541Z,32.03
2023-01-20T22:48:58.825Z,31.73
2023-01-20T22:51:28.464Z,29.23
2023-01-20T22:54:01.157Z,27.67
2023-01-20T22:56:31.279Z,30.27
2023-01-20T22:59:09.744Z,30.23
2023-01-20T23:01:38.145Z,32.70
2023-01-20T23:04:06.291Z,29.80
2023-01-20T23:06:35.603Z,35.47
2023-01-20T23:09:09.377Z,33.77
2023-01-20T23:11:38.536Z,32.03
2023-01-20T23:14:06.184Z,31.20
2023-01-20T23:16:33.202Z,33.47
2023-01-20T23:19:01.366Z,34.20
2023-01-20T23:21:28.542Z,38.70
2023-01-20T23:23:55.998Z,33.03
2023-01-20T23:26:25.732Z,34.13
2023-01-20T23:28:54.101Z,28.83
2023-01-20T23:31:26.026Z,29.87
2023-01-20T23:33:55.162Z,31.33
2023-01-20T23:36:24.971Z,34.53
2023-01-20T23:38:54.619Z,29.13
2023-01-20T23:41:22.106Z,31.37
2023-01-20T23:43:49.463Z,32.03
2023-01-20T23:46:16.886Z,31.97
2023-01-20T23:48:46.376Z,31.83
2023-01-20T23:51:14.113Z,29.33
2023-01-20T23:53:41.640Z,30.47
2023-01-20T23:56:14.219Z,28.33
2023-01-20T23:58:41.853Z,31.60
